»·PEaware :: N6056Q KLAX-KSNA

N6056Q :: KLAX-KSNA

FLIGHT INFORMATION

Flight Status: Arrived
Operator: Privately registered:
United States
More flights under this callsign
Pilot: Abraham T. (20517)
Aircraft: BEECH AIRCRAFT BONANZA
(BE36)
More flights by this aircraft type
Origin: KLAX Los Angeles Intl
United States
Destination: KSNA John Wayne-Orange Co
United States
More flights between these airports :: More routes between these airports
Route: SLI8 SLI
File this flight plan on PilotEdge
Remarks: Test I6
Altitude:
(Current/Filed)
4,000ft
Speed:
(Current/Filed)
165kts
Departed: 01-Dec-18 06:39 PM
Arrived: 01-Dec-18 07:11 PM
Distance/Time
Traveled:
31nm/0:32
Distance/Time
To Go:
Arrived

Flight Plot

Page will automatically refresh every two minutes.

Flight plan parsing failed; only flown route is shown


Map Options




Map Legend


Flown Route
Filed Route
Departure Airport
Arrival Airport
Navaid (VOR, NDB)
Fix

Horizontal Profiles

Position Reports

Time Latitude Longitude Heading Altitude Ground
Speed
01-Dec-18 18:21 33.939522 -118.408774 332 130ft 0kts
01-Dec-18 18:22 33.939523 -118.408775 332 130ft 0kts
01-Dec-18 18:23 33.939523 -118.408775 332 130ft 0kts
01-Dec-18 18:24 33.939524 -118.408775 332 130ft 0kts
01-Dec-18 18:25 33.939524 -118.408775 332 130ft 0kts
01-Dec-18 18:26 33.939524 -118.408776 332 130ft 0kts
01-Dec-18 18:27 33.939525 -118.408776 332 130ft 0kts
01-Dec-18 18:28 33.939525 -118.408776 332 130ft 0kts
01-Dec-18 18:29 33.938810 -118.408325 157 130ft 2kts
01-Dec-18 18:30 33.938317 -118.404736 82 130ft 33kts
01-Dec-18 18:31 33.938852 -118.399843 83 130ft 12kts
01-Dec-18 18:32 33.939464 -118.394083 84 130ft 19kts
01-Dec-18 18:33 33.940115 -118.386896 78 130ft 23kts
01-Dec-18 18:34 33.940553 -118.382663 78 130ft 10kts
01-Dec-18 18:35 33.940674 -118.380650 106 130ft 0kts
01-Dec-18 18:36 33.940674 -118.380650 106 130ft 0kts
01-Dec-18 18:37 33.940673 -118.380649 106 130ft 0kts
01-Dec-18 18:38 33.940673 -118.380649 106 130ft 0kts
01-Dec-18 18:39 33.940673 -118.380648 106 130ft 0kts
01-Dec-18 18:40 33.940673 -118.380648 106 130ft 0kts
01-Dec-18 18:41 33.940344 -118.380141 162 130ft 14kts
01-Dec-18 18:42 33.937468 -118.400568 261 637ft 107kts
01-Dec-18 18:43 33.933020 -118.442485 261 1444ft 135kts
01-Dec-18 18:44 33.905691 -118.472653 214 2175ft 138kts
01-Dec-18 18:45 33.873932 -118.499237 214 2878ft 140kts
01-Dec-18 18:46 33.840174 -118.515501 138 3565ft 139kts
01-Dec-18 18:47 33.827552 -118.472744 95 4139ft 149kts
01-Dec-18 18:48 33.822453 -118.418523 97 4001ft 170kts
01-Dec-18 18:49 33.816460 -118.362286 97 3999ft 168kts
01-Dec-18 18:50 33.810497 -118.306453 97 3999ft 168kts
01-Dec-18 18:51 33.804504 -118.250554 97 4000ft 168kts
01-Dec-18 18:52 33.798467 -118.194492 97 4000ft 168kts
01-Dec-18 18:53 33.792427 -118.138651 97 4000ft 168kts
01-Dec-18 18:54 33.786353 -118.082736 97 4000ft 168kts
01-Dec-18 18:55 33.793659 -118.029195 63 4002ft 168kts
01-Dec-18 18:56 33.814072 -117.978317 64 3999ft 168kts
01-Dec-18 18:57 33.834489 -117.927475 64 4000ft 168kts
01-Dec-18 18:58 33.854877 -117.876674 64 4000ft 168kts
01-Dec-18 18:59 33.875250 -117.825842 64 4000ft 168kts
01-Dec-18 19:00 33.895573 -117.775059 64 4000ft 168kts
01-Dec-18 19:01 33.915898 -117.724192 64 4000ft 168kts
01-Dec-18 19:02 33.949801 -117.690566 18 4003ft 168kts
01-Dec-18 19:03 33.984008 -117.705727 260 3999ft 167kts
01-Dec-18 19:04 33.944641 -117.712006 162 3839ft 169kts
01-Dec-18 19:05 33.902468 -117.724811 208 3623ft 127kts
01-Dec-18 19:06 33.874798 -117.742414 207 3487ft 102kts
01-Dec-18 19:07 33.849729 -117.758363 207 3503ft 103kts
01-Dec-18 19:08 33.824064 -117.774652 207 3322ft 104kts
01-Dec-18 19:09 33.797503 -117.791535 207 2689ft 110kts
01-Dec-18 19:10 33.770251 -117.808855 207 2005ft 109kts
01-Dec-18 19:11 33.743455 -117.825863 207 1433ft 108kts
01-Dec-18 19:12 33.717651 -117.842235 207 877ft 102kts
01-Dec-18 19:13 33.692452 -117.858216 207 346ft 102kts
01-Dec-18 19:14 33.673902 -117.869848 206 60ft 32kts
01-Dec-18 19:15 33.671888 -117.872018 268 60ft 0kts
01-Dec-18 19:16 33.672372 -117.873245 297 60ft 0kts
01-Dec-18 19:17 33.672373 -117.873246 297 60ft 0kts
01-Dec-18 19:18 33.672373 -117.873246 297 60ft 0kts

Navigation Log

Ident Type
Flight plan parsing failed, navigation log unavailable